sensor_id;sensor_type;location;lat;lon;timestamp;temperature;humidity
80426;DHT22;69766;51.476;5.704;2023-12-07T00:00:51;0.00;99.90
80426;DHT22;69766;51.476;5.704;2023-12-07T00:03:30;-0.10;99.90
80426;DHT22;69766;51.476;5.704;2023-12-07T00:05:59;-0.10;99.90
80426;DHT22;69766;51.476;5.704;2023-12-07T00:08:27;0.00;99.90
80426;DHT22;69766;51.476;5.704;2023-12-07T00:11:11;-0.20;99.90
80426;DHT22;69766;51.476;5.704;2023-12-07T00:17:24;-0.30;99.90
80426;DHT22;69766;51.476;5.704;2023-12-07T00:19:50;-0.30;99.90
80426;DHT22;69766;51.476;5.704;2023-12-07T00:22:49;-0.40;99.90
80426;DHT22;69766;51.476;5.704;2023-12-07T00:25:17;-0.40;99.90
80426;DHT22;69766;51.476;5.704;2023-12-07T00:28:01;-0.40;99.90
80426;DHT22;69766;51.476;5.704;2023-12-07T00:30:31;-0.40;99.90
80426;DHT22;69766;51.476;5.704;2023-12-07T00:33:11;-0.40;99.90
80426;DHT22;69766;51.476;5.704;2023-12-07T00:35:45;-0.40;99.90
80426;DHT22;69766;51.476;5.704;2023-12-07T00:41:50;-0.60;99.90
80426;DHT22;69766;51.476;5.704;2023-12-07T00:44:16;-0.50;99.90
80426;DHT22;69766;51.476;5.704;2023-12-07T00:46:48;-0.40;99.90
80426;DHT22;69766;51.476;5.704;2023-12-07T00:49:14;-0.30;99.90
80426;DHT22;69766;51.476;5.704;2023-12-07T00:51:43;-0.20;99.90
80426;DHT22;69766;51.476;5.704;2023-12-07T00:54:19;-0.20;99.90
80426;DHT22;69766;51.476;5.704;2023-12-07T00:56:48;-0.20;99.90
80426;DHT22;69766;51.476;5.704;2023-12-07T00:59:20;-0.20;99.90
80426;DHT22;69766;51.476;5.704;2023-12-07T01:01:45;-0.20;99.90
80426;DHT22;69766;51.476;5.704;2023-12-07T01:04:41;-0.20;99.90
80426;DHT22;69766;51.476;5.704;2023-12-07T01:07:12;-0.20;99.90
80426;DHT22;69766;51.476;5.704;2023-12-07T01:09:41;-0.30;99.90
80426;DHT22;69766;51.476;5.704;2023-12-07T01:12:10;-0.30;99.90
80426;DHT22;69766;51.476;5.704;2023-12-07T01:14:57;-0.20;99.90
80426;DHT22;69766;51.476;5.704;2023-12-07T01:17:40;-0.20;99.90
80426;DHT22;69766;51.476;5.704;2023-12-07T01:20:11;-0.30;99.90
80426;DHT22;69766;51.476;5.704;2023-12-07T01:22:46;-0.40;99.90
80426;DHT22;69766;51.476;5.704;2023-12-07T01:25:12;-0.40;99.90
80426;DHT22;69766;51.476;5.704;2023-12-07T01:27:42;-0.50;99.90
80426;DHT22;69766;51.476;5.704;2023-12-07T01:30:10;-0.40;99.90
80426;DHT22;69766;51.476;5.704;2023-12-07T01:32:39;-0.40;99.90
80426;DHT22;69766;51.476;5.704;2023-12-07T01:35:28;-0.40;99.90
80426;DHT22;69766;51.476;5.704;2023-12-07T01:44:07;-0.30;99.90
80426;DHT22;69766;51.476;5.704;2023-12-07T01:47:16;-0.30;99.90
80426;DHT22;69766;51.476;5.704;2023-12-07T01:49:38;-0.30;99.90
80426;DHT22;69766;51.476;5.704;2023-12-07T01:52:07;-0.40;99.90
80426;DHT22;69766;51.476;5.704;2023-12-07T01:57:35;-0.40;99.90
80426;DHT22;69766;51.476;5.704;2023-12-07T02:00:09;-0.40;99.90
80426;DHT22;69766;51.476;5.704;2023-12-07T02:02:38;-0.30;99.90
80426;DHT22;69766;51.476;5.704;2023-12-07T02:06:10;-0.40;99.90
80426;DHT22;69766;51.476;5.704;2023-12-07T02:08:23;-0.40;99.90
80426;DHT22;69766;51.476;5.704;2023-12-07T02:10:51;-0.40;99.90
80426;DHT22;69766;51.476;5.704;2023-12-07T02:29:24;-0.20;99.90
80426;DHT22;69766;51.476;5.704;2023-12-07T02:31:31;-0.10;99.90
80426;DHT22;69766;51.476;5.704;2023-12-07T02:37:27;0.00;99.90
80426;DHT22;69766;51.476;5.704;2023-12-07T02:40:09;0.20;99.90
80426;DHT22;69766;51.476;5.704;2023-12-07T02:42:54;0.30;99.90
80426;DHT22;69766;51.476;5.704;2023-12-07T02:45:23;0.30;99.90
80426;DHT22;69766;51.476;5.704;2023-12-07T02:47:52;0.40;99.90
80426;DHT22;69766;51.476;5.704;2023-12-07T02:50:18;0.30;99.90
80426;DHT22;69766;51.476;5.704;2023-12-07T02:52:47;0.40;99.90
80426;DHT22;69766;51.476;5.704;2023-12-07T02:55:13;0.40;99.90
80426;DHT22;69766;51.476;5.704;2023-12-07T02:57:39;0.40;99.90
80426;DHT22;69766;51.476;5.704;2023-12-07T03:00:13;0.40;99.90
80426;DHT22;69766;51.476;5.704;2023-12-07T03:02:42;0.40;99.90
80426;DHT22;69766;51.476;5.704;2023-12-07T03:08:06;0.30;99.90
80426;DHT22;69766;51.476;5.704;2023-12-07T03:10:38;0.40;99.90
80426;DHT22;69766;51.476;5.704;2023-12-07T03:13:16;0.30;99.90
80426;DHT22;69766;51.476;5.704;2023-12-07T03:15:42;0.30;99.90
80426;DHT22;69766;51.476;5.704;2023-12-07T03:18:13;0.40;99.90
80426;DHT22;69766;51.476;5.704;2023-12-07T03:20:48;0.40;99.90
80426;DHT22;69766;51.476;5.704;2023-12-07T03:23:15;0.20;99.90
80426;DHT22;69766;51.476;5.704;2023-12-07T03:25:42;0.20;99.90
80426;DHT22;69766;51.476;5.704;2023-12-07T03:28:08;0.30;99.90
80426;DHT22;69766;51.476;5.704;2023-12-07T03:30:33;0.20;99.90
80426;DHT22;69766;51.476;5.704;2023-12-07T03:32:59;0.30;99.90
80426;DHT22;69766;51.476;5.704;2023-12-07T03:35:25;0.30;99.90
80426;DHT22;69766;51.476;5.704;2023-12-07T03:37:51;0.20;99.90
80426;DHT22;69766;51.476;5.704;2023-12-07T03:40:20;0.30;99.90
80426;DHT22;69766;51.476;5.704;2023-12-07T03:45:53;0.20;99.90
80426;DHT22;69766;51.476;5.704;2023-12-07T03:49:02;0.30;99.90
80426;DHT22;69766;51.476;5.704;2023-12-07T03:51:18;0.20;99.90
80426;DHT22;69766;51.476;5.704;2023-12-07T03:53:45;0.10;99.90
80426;DHT22;69766;51.476;5.704;2023-12-07T03:59:17;-0.10;99.90
80426;DHT22;69766;51.476;5.704;2023-12-07T04:01:46;-0.10;99.90
80426;DHT22;69766;51.476;5.704;2023-12-07T04:04:12;0.00;99.90
80426;DHT22;69766;51.476;5.704;2023-12-07T04:06:47;0.00;99.90
80426;DHT22;69766;51.476;5.704;2023-12-07T04:09:19;0.00;99.90
80426;DHT22;69766;51.476;5.704;2023-12-07T04:12:13;0.00;99.90
80426;DHT22;69766;51.476;5.704;2023-12-07T04:14:42;0.00;99.90
80426;DHT22;69766;51.476;5.704;2023-12-07T04:17:15;0.00;99.90
80426;DHT22;69766;51.476;5.704;2023-12-07T04:19:42;-0.10;99.90
80426;DHT22;69766;51.476;5.704;2023-12-07T04:22:10;0.00;99.90
80426;DHT22;69766;51.476;5.704;2023-12-07T04:24:37;0.00;99.90
80426;DHT22;69766;51.476;5.704;2023-12-07T04:27:02;0.00;99.90
80426;DHT22;69766;51.476;5.704;2023-12-07T04:29:28;0.00;99.90
80426;DHT22;69766;51.476;5.704;2023-12-07T04:31:54;0.10;99.90
80426;DHT22;69766;51.476;5.704;2023-12-07T04:34:20;0.00;99.90
80426;DHT22;69766;51.476;5.704;2023-12-07T04:36:46;0.00;99.90
80426;DHT22;69766;51.476;5.704;2023-12-07T04:39:11;0.10;99.90
80426;DHT22;69766;51.476;5.704;2023-12-07T04:41:37;0.10;99.90
80426;DHT22;69766;51.476;5.704;2023-12-07T04:44:03;0.00;99.90
80426;DHT22;69766;51.476;5.704;2023-12-07T04:46:29;0.10;99.90
80426;DHT22;69766;51.476;5.704;2023-12-07T04:48:54;0.10;99.90
80426;DHT22;69766;51.476;5.704;2023-12-07T04:51:20;0.20;99.90
80426;DHT22;69766;51.476;5.704;2023-12-07T04:53:46;0.10;99.90
80426;DHT22;69766;51.476;5.704;2023-12-07T04:56:12;0.10;99.90
80426;DHT22;69766;51.476;5.704;2023-12-07T04:58:44;0.10;99.90
80426;DHT22;69766;51.476;5.704;2023-12-07T05:01:10;0.10;99.90
80426;DHT22;69766;51.476;5.704;2023-12-07T05:03:36;0.10;99.90
80426;DHT22;69766;51.476;5.704;2023-12-07T05:06:02;0.10;99.90
80426;DHT22;69766;51.476;5.704;2023-12-07T05:08:27;0.10;99.90
80426;DHT22;69766;51.476;5.704;2023-12-07T05:10:53;0.10;99.90
80426;DHT22;69766;51.476;5.704;2023-12-07T05:13:40;0.10;99.90
80426;DHT22;69766;51.476;5.704;2023-12-07T05:16:04;0.10;99.90
80426;DHT22;69766;51.476;5.704;2023-12-07T05:18:30;0.20;99.90
80426;DHT22;69766;51.476;5.704;2023-12-07T05:20:56;0.20;99.90
80426;DHT22;69766;51.476;5.704;2023-12-07T05:23:21;0.20;99.90
80426;DHT22;69766;51.476;5.704;2023-12-07T05:25:47;0.20;99.90
80426;DHT22;69766;51.476;5.704;2023-12-07T05:28:13;0.20;99.90
80426;DHT22;69766;51.476;5.704;2023-12-07T05:31:00;0.20;99.90
80426;DHT22;69766;51.476;5.704;2023-12-07T05:33:57;0.20;99.90
80426;DHT22;69766;51.476;5.704;2023-12-07T05:36:23;0.30;99.90
80426;DHT22;69766;51.476;5.704;2023-12-07T05:38:52;0.30;99.90
80426;DHT22;69766;51.476;5.704;2023-12-07T05:41:20;0.30;99.90
80426;DHT22;69766;51.476;5.704;2023-12-07T05:43:48;0.30;99.90
80426;DHT22;69766;51.476;5.704;2023-12-07T05:46:20;0.30;99.90
80426;DHT22;69766;51.476;5.704;2023-12-07T05:52:01;0.30;99.90
80426;DHT22;69766;51.476;5.704;2023-12-07T06:00:43;0.40;99.90
80426;DHT22;69766;51.476;5.704;2023-12-07T06:03:18;0.50;99.90
80426;DHT22;69766;51.476;5.704;2023-12-07T06:05:44;0.40;99.90
80426;DHT22;69766;51.476;5.704;2023-12-07T06:08:12;0.40;99.90
80426;DHT22;69766;51.476;5.704;2023-12-07T06:10:38;0.50;99.90
80426;DHT22;69766;51.476;5.704;2023-12-07T06:13:12;0.40;99.90
80426;DHT22;69766;51.476;5.704;2023-12-07T06:15:48;0.50;99.90
80426;DHT22;69766;51.476;5.704;2023-12-07T06:18:13;0.50;99.90
80426;DHT22;69766;51.476;5.704;2023-12-07T06:20:42;0.40;99.90
80426;DHT22;69766;51.476;5.704;2023-12-07T06:25:47;0.50;99.90
80426;DHT22;69766;51.476;5.704;2023-12-07T06:28:13;0.50;99.90
80426;DHT22;69766;51.476;5.704;2023-12-07T06:30:41;0.50;99.90
80426;DHT22;69766;51.476;5.704;2023-12-07T06:36:59;0.50;99.90
80426;DHT22;69766;51.476;5.704;2023-12-07T06:40:10;0.50;99.90
80426;DHT22;69766;51.476;5.704;2023-12-07T06:42:20;0.50;99.90
80426;DHT22;69766;51.476;5.704;2023-12-07T06:44:49;0.50;99.90
80426;DHT22;69766;51.476;5.704;2023-12-07T06:47:15;0.50;99.90
80426;DHT22;69766;51.476;5.704;2023-12-07T06:49:41;0.50;99.90
80426;DHT22;69766;51.476;5.704;2023-12-07T06:52:12;0.60;99.90
80426;DHT22;69766;51.476;5.704;2023-12-07T06:54:38;0.60;99.90
80426;DHT22;69766;51.476;5.704;2023-12-07T06:57:06;0.70;99.90
80426;DHT22;69766;51.476;5.704;2023-12-07T07:14:53;0.70;99.90
80426;DHT22;69766;51.476;5.704;2023-12-07T07:17:27;0.60;99.90
80426;DHT22;69766;51.476;5.704;2023-12-07T07:23:00;0.60;99.90
80426;DHT22;69766;51.476;5.704;2023-12-07T07:25:45;0.70;99.90
80426;DHT22;69766;51.476;5.704;2023-12-07T07:31:30;0.70;99.90
80426;DHT22;69766;51.476;5.704;2023-12-07T07:34:00;0.70;99.90
80426;DHT22;69766;51.476;5.704;2023-12-07T07:36:29;0.70;99.90
80426;DHT22;69766;51.476;5.704;2023-12-07T07:38:55;0.70;99.90
80426;DHT22;69766;51.476;5.704;2023-12-07T07:44:54;0.70;99.90
80426;DHT22;69766;51.476;5.704;2023-12-07T07:50:20;0.80;99.90
80426;DHT22;69766;51.476;5.704;2023-12-07T07:52:46;0.80;99.90
80426;DHT22;69766;51.476;5.704;2023-12-07T08:01:11;0.90;99.90
80426;DHT22;69766;51.476;5.704;2023-12-07T08:03:37;1.00;99.90
80426;DHT22;69766;51.476;5.704;2023-12-07T08:06:02;0.90;99.90
80426;DHT22;69766;51.476;5.704;2023-12-07T08:08:28;0.90;99.90
80426;DHT22;69766;51.476;5.704;2023-12-07T08:17:12;1.00;99.90
80426;DHT22;69766;51.476;5.704;2023-12-07T08:19:41;1.00;99.90
80426;DHT22;69766;51.476;5.704;2023-12-07T08:22:43;1.10;99.90
80426;DHT22;69766;51.476;5.704;2023-12-07T08:25:28;1.00;99.90
80426;DHT22;69766;51.476;5.704;2023-12-07T08:27:54;1.00;99.90
80426;DHT22;69766;51.476;5.704;2023-12-07T08:33:23;1.20;99.90
80426;DHT22;69766;51.476;5.704;2023-12-07T08:36:03;1.30;99.90
80426;DHT22;69766;51.476;5.704;2023-12-07T08:38:50;1.30;99.90
80426;DHT22;69766;51.476;5.704;2023-12-07T08:41:16;1.30;99.90
80426;DHT22;69766;51.476;5.704;2023-12-07T08:47:42;1.40;99.90
80426;DHT22;69766;51.476;5.704;2023-12-07T08:49:49;1.40;99.90
80426;DHT22;69766;51.476;5.704;2023-12-07T08:52:17;1.40;99.90
80426;DHT22;69766;51.476;5.704;2023-12-07T08:54:43;1.50;99.90
80426;DHT22;69766;51.476;5.704;2023-12-07T08:57:12;1.60;99.90
80426;DHT22;69766;51.476;5.704;2023-12-07T08:59:45;1.60;99.90
80426;DHT22;69766;51.476;5.704;2023-12-07T09:02:11;1.60;99.90
80426;DHT22;69766;51.476;5.704;2023-12-07T09:04:37;1.70;99.90
80426;DHT22;69766;51.476;5.704;2023-12-07T09:07:04;1.70;99.90
80426;DHT22;69766;51.476;5.704;2023-12-07T09:09:41;1.80;99.90
80426;DHT22;69766;51.476;5.704;2023-12-07T09:12:13;1.90;99.90
80426;DHT22;69766;51.476;5.704;2023-12-07T09:14:41;1.90;99.90
80426;DHT22;69766;51.476;5.704;2023-12-07T09:17:07;1.80;99.90
80426;DHT22;69766;51.476;5.704;2023-12-07T09:19:33;1.80;99.90
80426;DHT22;69766;51.476;5.704;2023-12-07T09:28:25;2.00;99.90
80426;DHT22;69766;51.476;5.704;2023-12-07T09:33:54;2.00;99.90
80426;DHT22;69766;51.476;5.704;2023-12-07T09:36:43;2.10;99.90
80426;DHT22;69766;51.476;5.704;2023-12-07T09:39:11;2.40;99.90
80426;DHT22;69766;51.476;5.704;2023-12-07T09:41:40;2.40;99.90
80426;DHT22;69766;51.476;5.704;2023-12-07T09:57:11;2.60;99.90
80426;DHT22;69766;51.476;5.704;2023-12-07T10:05:57;3.00;99.90
80426;DHT22;69766;51.476;5.704;2023-12-07T10:24:08;3.40;99.90
80426;DHT22;69766;51.476;5.704;2023-12-07T10:57:35;3.80;99.90
80426;DHT22;69766;51.476;5.704;2023-12-07T11:00:02;3.60;99.90
80426;DHT22;69766;51.476;5.704;2023-12-07T11:02:35;3.70;99.90
80426;DHT22;69766;51.476;5.704;2023-12-07T11:15:05;4.20;99.90
80426;DHT22;69766;51.476;5.704;2023-12-07T11:49:11;4.20;99.90
80426;DHT22;69766;51.476;5.704;2023-12-07T11:55:01;4.60;99.90
80426;DHT22;69766;51.476;5.704;2023-12-07T11:57:53;4.80;99.90
80426;DHT22;69766;51.476;5.704;2023-12-07T12:58:54;6.60;99.90
80426;DHT22;69766;51.476;5.704;2023-12-07T13:01:31;5.60;99.90
80426;DHT22;69766;51.476;5.704;2023-12-07T13:47:40;3.70;99.90
80426;DHT22;69766;51.476;5.704;2023-12-07T13:59:10;3.50;99.90
80426;DHT22;69766;51.476;5.704;2023-12-07T14:20:15;3.30;99.90
80426;DHT22;69766;51.476;5.704;2023-12-07T14:39:00;3.10;99.90
80426;DHT22;69766;51.476;5.704;2023-12-07T14:50:53;2.90;99.90
80426;DHT22;69766;51.476;5.704;2023-12-07T14:53:34;3.00;99.90
80426;DHT22;69766;51.476;5.704;2023-12-07T14:56:03;2.90;99.90
80426;DHT22;69766;51.476;5.704;2023-12-07T14:58:32;2.80;99.90
80426;DHT22;69766;51.476;5.704;2023-12-07T15:01:07;2.80;99.90
80426;DHT22;69766;51.476;5.704;2023-12-07T15:06:59;2.80;99.90
80426;DHT22;69766;51.476;5.704;2023-12-07T15:10:35;2.80;99.90
80426;DHT22;69766;51.476;5.704;2023-12-07T15:15:48;2.70;99.90
80426;DHT22;69766;51.476;5.704;2023-12-07T15:18:17;2.60;99.90
80426;DHT22;69766;51.476;5.704;2023-12-07T15:21:07;2.50;99.90
80426;DHT22;69766;51.476;5.704;2023-12-07T15:36:47;2.30;99.90
80426;DHT22;69766;51.476;5.704;2023-12-07T15:51:37;2.10;99.90
80426;DHT22;69766;51.476;5.704;2023-12-07T16:06:10;2.10;99.90
80426;DHT22;69766;51.476;5.704;2023-12-07T16:08:54;2.10;99.90
80426;DHT22;69766;51.476;5.704;2023-12-07T16:36:34;2.10;99.90
80426;DHT22;69766;51.476;5.704;2023-12-07T16:48:45;2.10;99.90
80426;DHT22;69766;51.476;5.704;2023-12-07T16:51:13;2.20;99.90
80426;DHT22;69766;51.476;5.704;2023-12-07T17:00:14;2.10;99.90
80426;DHT22;69766;51.476;5.704;2023-12-07T17:06:19;2.10;99.90
80426;DHT22;69766;51.476;5.704;2023-12-07T17:08:55;2.10;99.90
80426;DHT22;69766;51.476;5.704;2023-12-07T17:24:25;2.10;99.90
80426;DHT22;69766;51.476;5.704;2023-12-07T17:53:54;2.10;99.90
80426;DHT22;69766;51.476;5.704;2023-12-07T18:05:37;2.10;99.90
80426;DHT22;69766;51.476;5.704;2023-12-07T18:08:32;2.10;99.90
80426;DHT22;69766;51.476;5.704;2023-12-07T18:11:01;2.00;99.90
80426;DHT22;69766;51.476;5.704;2023-12-07T18:19:47;1.90;99.90
80426;DHT22;69766;51.476;5.704;2023-12-07T18:22:39;1.90;99.90
80426;DHT22;69766;51.476;5.704;2023-12-07T18:25:13;1.90;99.90
80426;DHT22;69766;51.476;5.704;2023-12-07T18:28:01;2.00;99.90
80426;DHT22;69766;51.476;5.704;2023-12-07T18:36:25;1.90;99.90
80426;DHT22;69766;51.476;5.704;2023-12-07T18:39:22;2.10;99.90
80426;DHT22;69766;51.476;5.704;2023-12-07T18:45:01;1.90;99.90
80426;DHT22;69766;51.476;5.704;2023-12-07T18:58:00;2.00;99.90
80426;DHT22;69766;51.476;5.704;2023-12-07T19:07:37;2.00;99.90
80426;DHT22;69766;51.476;5.704;2023-12-07T19:10:09;2.10;99.90
80426;DHT22;69766;51.476;5.704;2023-12-07T19:12:54;2.10;99.90
80426;DHT22;69766;51.476;5.704;2023-12-07T19:18:40;2.10;99.90
80426;DHT22;69766;51.476;5.704;2023-12-07T19:40:17;2.10;99.90
80426;DHT22;69766;51.476;5.704;2023-12-07T19:45:59;2.00;99.90
80426;DHT22;69766;51.476;5.704;2023-12-07T19:48:51;2.10;99.90
80426;DHT22;69766;51.476;5.704;2023-12-07T19:55:00;2.10;99.90
80426;DHT22;69766;51.476;5.704;2023-12-07T19:58:02;2.10;99.90
80426;DHT22;69766;51.476;5.704;2023-12-07T20:03:52;2.10;99.90
80426;DHT22;69766;51.476;5.704;2023-12-07T20:06:51;2.10;99.90
80426;DHT22;69766;51.476;5.704;2023-12-07T20:09:40;2.20;99.90
80426;DHT22;69766;51.476;5.704;2023-12-07T20:12:23;2.20;99.90
80426;DHT22;69766;51.476;5.704;2023-12-07T20:14:51;2.20;99.90
80426;DHT22;69766;51.476;5.704;2023-12-07T20:17:28;2.20;99.90
80426;DHT22;69766;51.476;5.704;2023-12-07T20:20:04;2.20;99.90
80426;DHT22;69766;51.476;5.704;2023-12-07T20:22:59;2.20;99.90
80426;DHT22;69766;51.476;5.704;2023-12-07T20:25:38;2.20;99.90
80426;DHT22;69766;51.476;5.704;2023-12-07T20:31:15;2.20;99.90
80426;DHT22;69766;51.476;5.704;2023-12-07T20:34:04;2.20;99.90
80426;DHT22;69766;51.476;5.704;2023-12-07T20:36:38;2.10;99.90
80426;DHT22;69766;51.476;5.704;2023-12-07T20:41:54;2.20;99.90
80426;DHT22;69766;51.476;5.704;2023-12-07T20:44:26;2.20;99.90
80426;DHT22;69766;51.476;5.704;2023-12-07T20:47:08;2.20;99.90
80426;DHT22;69766;51.476;5.704;2023-12-07T20:50:11;2.30;99.90
80426;DHT22;69766;51.476;5.704;2023-12-07T20:59:12;2.20;99.90
80426;DHT22;69766;51.476;5.704;2023-12-07T21:14:37;2.10;99.90
80426;DHT22;69766;51.476;5.704;2023-12-07T21:26:02;2.30;99.90
80426;DHT22;69766;51.476;5.704;2023-12-07T21:50:37;2.20;99.90
80426;DHT22;69766;51.476;5.704;2023-12-07T22:02:07;2.30;99.90
80426;DHT22;69766;51.476;5.704;2023-12-07T22:04:51;2.30;99.90
80426;DHT22;69766;51.476;5.704;2023-12-07T22:07:47;2.20;99.90
80426;DHT22;69766;51.476;5.704;2023-12-07T23:22:06;2.50;99.90
80426;DHT22;69766;51.476;5.704;2023-12-07T23:31:24;2.40;99.90
80426;DHT22;69766;51.476;5.704;2023-12-07T23:58:31;2.40;99.90
